Time;durP1;ratioP1;P1;durP2;ratioP2;P2;SDS_P1;SDS_P2;PMS_P1;PMS_P2;Temp;Humidity;BMP_temperature;BMP_pressure;BME280_temperature;BME280_humidity;BME280_pressure;Samples;Min_cycle;Max_cycle;Signal;HPM_P1;HPM_P2
2022/12/12 00:03:01;;;;;;;13.20;12.10;;;;;;;21.81;38.32;93739.88;6288508;27;103321;-62
2022/12/12 00:06:05;;;;;;;13.33;12.20;;;;;;;21.81;38.20;93739.88;6276836;27;104224;-61
2022/12/12 00:09:08;;;;;;;12.97;11.97;;;;;;;21.82;38.04;93761.97;6287971;27;104544;-61
2022/12/12 00:12:12;;;;;;;13.07;11.90;;;;;;;21.82;38.37;93764.63;6288511;27;103265;-61
2022/12/12 00:15:15;;;;;;;12.43;11.43;;;;;;;21.80;38.46;93764.16;6285334;27;104626;-61
2022/12/12 00:18:18;;;;;;;12.33;11.33;;;;;;;21.81;38.16;93779.81;6270220;27;105014;-61
2022/12/12 00:21:24;;;;;;;12.77;11.77;;;;;;;21.79;38.68;93783.91;6287984;27;104317;-61
2022/12/12 00:24:27;;;;;;;12.57;11.57;;;;;;;21.81;38.15;93792.34;6287515;27;103840;-61
2022/12/12 00:27:33;;;;;;;12.57;11.57;;;;;;;21.78;38.33;93790.34;6283392;27;103094;-62
2022/12/12 00:30:36;;;;;;;12.23;11.23;;;;;;;21.79;38.48;93783.91;6281976;27;103953;-61
2022/12/12 00:33:39;;;;;;;11.27;10.37;;;;;;;21.79;38.27;93773.25;6287949;27;104283;-61
2022/12/12 00:36:42;;;;;;;11.73;10.73;;;;;;;21.79;38.32;93774.03;6287043;27;103649;-61
2022/12/12 00:39:46;;;;;;;11.23;10.33;;;;;;;21.79;38.75;93783.91;6278051;27;103593;-61
2022/12/12 00:42:50;;;;;;;11.50;10.50;;;;;;;21.78;38.50;93785.03;6287702;27;103338;-61
2022/12/12 00:45:54;;;;;;;10.97;10.07;;;;;;;21.78;38.61;93772.50;6287760;27;104207;-62
2022/12/12 00:48:58;;;;;;;9.87;9.07;;;;;;;21.77;38.76;93776.25;6287025;27;103216;-60
2022/12/12 00:52:01;;;;;;;10.80;9.90;;;;;;;21.76;38.84;93766.72;6276461;27;104271;-63
2022/12/12 00:55:05;;;;;;;11.20;10.23;;;;;;;21.76;38.30;93782.69;6286943;27;104227;-61
2022/12/12 00:58:10;;;;;;;10.80;9.90;;;;;;;21.77;38.58;93778.16;6287392;27;103064;-60
2022/12/12 01:01:16;;;;;;;9.80;9.00;;;;;;;21.76;38.46;93790.69;6286789;27;103308;-62
2022/12/12 01:04:19;;;;;;;9.67;8.90;;;;;;;21.76;38.25;93795.25;6278059;27;103017;-62
2022/12/12 01:07:22;;;;;;;10.53;9.63;;;;;;;21.76;38.52;93800.56;6286192;27;104173;-61
2022/12/12 01:10:25;;;;;;;9.50;8.70;;;;;;;21.76;38.28;93797.91;6287436;27;104153;-63
2022/12/12 01:13:30;;;;;;;9.23;8.43;;;;;;;21.74;38.64;93790.25;6278520;27;103577;-61
2022/12/12 01:16:33;;;;;;;9.03;8.33;;;;;;;21.75;38.69;93794.47;6286396;27;103060;-61
2022/12/12 01:19:36;;;;;;;9.30;8.50;;;;;;;21.75;38.57;93805.13;6287158;27;103027;-61
2022/12/12 01:22:40;;;;;;;9.60;8.80;;;;;;;21.73;38.40;93786.03;6286277;27;103091;-62
2022/12/12 01:25:43;;;;;;;8.27;7.57;;;;;;;21.74;38.19;93787.59;6276378;27;103858;-61
2022/12/12 01:28:47;;;;;;;8.43;7.83;;;;;;;21.74;38.33;93789.47;6285947;27;103493;-61
2022/12/12 01:31:50;;;;;;;7.97;7.33;;;;;;;21.74;38.62;93784.16;6287420;27;104280;-61
2022/12/12 01:34:53;;;;;;;8.20;7.60;;;;;;;21.73;38.19;93793.25;6285040;27;103030;-61
2022/12/12 01:37:56;;;;;;;7.77;7.17;;;;;;;21.73;38.57;93796.69;6273512;27;103881;-61
2022/12/12 01:40:59;;;;;;;7.80;7.10;;;;;;;21.73;38.12;93794.03;6286497;27;103254;-61
2022/12/12 01:44:27;;;;;;;7.60;7.00;;;;;;;21.74;38.28;93800.13;6285970;27;103188;-62
2022/12/12 01:47:30;;;;;;;7.97;7.27;;;;;;;21.74;37.92;93813.44;6276494;27;104172;-61
2022/12/12 01:50:33;;;;;;;6.90;6.40;;;;;;;21.73;38.19;93822.53;6284360;27;103804;-62
2022/12/12 01:53:37;;;;;;;7.13;6.47;;;;;;;21.73;37.94;93810.00;6285171;27;102965;-62
2022/12/12 01:56:43;;;;;;;6.80;6.30;;;;;;;21.71;38.31;93816.78;6286064;27;104160;-62
2022/12/12 01:59:47;;;;;;;6.90;6.30;;;;;;;21.71;38.46;93816.78;6274956;27;104339;-62
2022/12/12 02:02:52;;;;;;;6.20;5.50;;;;;;;21.71;38.10;93814.09;6285890;27;103227;-62
2022/12/12 02:05:59;;;;;;;7.03;6.50;;;;;;;21.71;38.07;93817.56;6285708;27;103098;-62
2022/12/12 02:09:07;;;;;;;7.33;6.70;;;;;;;21.70;37.84;93834.63;6286059;27;103799;-60
2022/12/12 02:12:13;;;;;;;6.30;5.80;;;;;;;21.72;38.17;93836.97;6275238;27;104176;-62
2022/12/12 02:15:18;;;;;;;5.80;5.40;;;;;;;21.70;38.36;93831.97;6285270;27;104034;-63
2022/12/12 02:18:28;;;;;;;6.30;5.80;;;;;;;21.69;38.13;93837.63;6286316;27;103364;-62
2022/12/12 02:21:41;;;;;;;6.57;6.03;;;;;;;21.70;38.02;93845.28;6280286;27;103239;-61
2022/12/12 02:25:17;;;;;;;6.67;6.17;;;;;;;21.69;38.12;93835.75;6283024;27;103552;-60
2022/12/12 02:28:40;;;;;;;5.63;5.23;;;;;;;21.69;37.87;93830.41;6285331;27;103278;-61
2022/12/12 02:31:51;;;;;;;5.90;5.50;;;;;;;21.70;37.92;93842.63;6285066;27;102939;-61
2022/12/12 02:35:04;;;;;;;5.70;5.30;;;;;;;21.68;38.38;93839.53;6276188;27;103534;-63
2022/12/12 02:38:18;;;;;;;6.10;5.60;;;;;;;21.69;37.89;93845.63;6281950;27;103353;-62
2022/12/12 02:41:28;;;;;;;5.53;5.13;;;;;;;21.68;37.99;93836.84;6284417;27;105746;-61
2022/12/12 02:44:39;;;;;;;5.77;5.33;;;;;;;21.68;37.91;93842.19;6279957;27;104095;-61
2022/12/12 02:47:48;;;;;;;6.20;5.60;;;;;;;21.67;37.96;93845.16;6284985;27;103931;-61
2022/12/12 02:50:54;;;;;;;5.57;5.07;;;;;;;21.67;37.68;93837.16;6285263;27;103220;-61
2022/12/12 02:53:59;;;;;;;6.13;5.63;;;;;;;21.66;37.93;93832.94;6277229;27;103321;-61
2022/12/12 02:57:02;;;;;;;5.90;5.40;;;;;;;21.66;38.02;93827.63;6275448;27;104047;-61
2022/12/12 03:00:08;;;;;;;5.37;4.97;;;;;;;21.65;38.27;93821.53;6284114;27;103337;-61
2022/12/12 03:10:34;;;;;;;4.97;4.57;;;;;;;21.64;38.21;93819.97;6282425;27;103379;-62
2022/12/12 03:13:45;;;;;;;5.23;4.83;;;;;;;21.65;37.91;93821.53;6269505;27;104298;-60
2022/12/12 03:16:55;;;;;;;5.17;4.77;;;;;;;21.64;38.11;93819.97;6285582;27;104284;-61
2022/12/12 03:20:06;;;;;;;4.70;4.30;;;;;;;21.65;37.60;93826.06;6264926;27;103683;-60
2022/12/12 03:23:15;;;;;;;4.93;4.53;;;;;;;21.64;38.05;93821.84;6284625;27;103755;-61
2022/12/12 03:26:25;;;;;;;4.80;4.50;;;;;;;21.62;37.48;93829.41;6283616;27;103138;-62
2022/12/12 03:29:32;;;;;;;5.20;4.80;;;;;;;21.64;37.64;93824.53;6279820;27;103395;-61
2022/12/12 03:32:56;;;;;;;5.33;4.93;;;;;;;21.64;38.18;93832.50;6279144;27;103870;-61
2022/12/12 03:36:07;;;;;;;5.60;5.20;;;;;;;21.62;37.74;93830.19;6283911;27;103124;-62
2022/12/12 03:39:16;;;;;;;5.30;4.83;;;;;;;21.63;38.06;93841.59;6284997;27;104146;-61
2022/12/12 03:42:23;;;;;;;4.67;4.27;;;;;;;21.63;37.98;93825.63;6273902;27;103238;-62
2022/12/12 03:45:32;;;;;;;4.97;4.57;;;;;;;21.63;38.10;93852.25;6284750;27;104277;-61
2022/12/12 03:48:40;;;;;;;4.80;4.40;;;;;;;21.63;37.82;93849.59;6284996;27;103148;-61
2022/12/12 03:51:49;;;;;;;4.80;4.40;;;;;;;21.62;37.90;93864.78;6284713;27;103036;-61
2022/12/12 03:54:58;;;;;;;4.53;4.20;;;;;;;21.64;37.85;93864.47;6273999;27;102757;-63
2022/12/12 03:58:09;;;;;;;4.33;3.93;;;;;;;21.62;37.91;93864.78;6284382;27;103605;-61
2022/12/12 04:01:14;;;;;;;4.63;3.80;;;;;;;21.62;37.58;93872.00;6287000;27;103138;-61
2022/12/12 04:04:23;;;;;;;5.00;4.50;;;;;;;21.61;37.69;93865.13;6283518;27;103266;-61
2022/12/12 04:07:33;;;;;;;5.17;4.77;;;;;;;21.61;37.90;93863.22;6283292;27;104076;-63
2022/12/12 04:14:33;;;;;;;4.80;4.40;;;;;;;21.62;37.75;93864.00;6207604;28;103093;-62
2022/12/12 04:17:42;;;;;;;4.53;4.23;;;;;;;21.60;37.75;93864.34;6199482;27;103396;-62
2022/12/12 04:24:25;;;;;;;7.30;6.40;;;;;;;21.61;38.92;93887.19;6285823;27;104382;-60
2022/12/12 04:27:34;;;;;;;5.43;4.33;;;;;;;21.55;38.11;93885.09;6276273;27;103273;-64
2022/12/12 04:30:38;;;;;;;6.03;4.80;;;;;;;21.56;37.63;93898.06;6286779;27;106159;-62
2022/12/12 04:33:48;;;;;;;5.20;4.80;;;;;;;21.57;37.44;93890.84;6288109;27;107698;-64
2022/12/12 04:36:53;;;;;;;5.80;5.30;;;;;;;21.59;37.50;93892.06;6288140;27;103197;-64
2022/12/12 04:40:00;;;;;;;5.33;4.90;;;;;;;21.58;36.92;93893.19;6277264;27;104331;-63
2022/12/12 04:43:06;;;;;;;6.30;5.70;;;;;;;21.57;37.12;93888.97;6286529;27;103832;-63
2022/12/12 04:46:13;;;;;;;5.00;4.60;;;;;;;21.58;37.24;93905.72;6287650;27;103237;-63
2022/12/12 04:49:20;;;;;;;5.20;4.80;;;;;;;21.60;37.15;93888.31;6285110;27;103053;-63
2022/12/12 04:52:25;;;;;;;5.80;5.40;;;;;;;21.61;37.82;93886.41;6275388;27;103076;-63
2022/12/12 04:55:33;;;;;;;7.10;6.40;;;;;;;21.59;38.27;93885.97;6286598;27;104065;-64
2022/12/12 04:58:37;;;;;;;6.70;5.37;;;;;;;21.62;38.25;93875.44;6282928;27;103325;-65
2022/12/12 05:01:52;;;;;;;5.50;5.10;;;;;;;21.65;38.35;93881.97;6278440;27;104244;-64
2022/12/12 05:04:59;;;;;;;5.80;5.40;;;;;;;21.68;38.22;93892.00;6280917;27;103328;-63
2022/12/12 05:08:06;;;;;;;5.20;4.80;;;;;;;21.68;38.37;93898.09;6287248;27;103651;-63
2022/12/12 05:11:12;;;;;;;8.50;5.07;;;;;;;21.79;38.84;93901.09;6286873;27;103183;-61
2022/12/12 05:14:16;;;;;;;5.10;4.70;;;;;;;21.83;39.00;93902.00;6258834;27;103144;-62
2022/12/12 05:17:26;;;;;;;8.43;4.90;;;;;;;21.83;38.65;93896.66;6278948;27;104254;-63
2022/12/12 05:20:29;;;;;;;6.20;5.50;;;;;;;21.90;39.13;93894.25;6285915;27;103198;-61
2022/12/12 05:23:32;;;;;;;9.10;5.43;;;;;;;21.82;38.93;93889.78;6285738;27;103162;-65
2022/12/12 05:26:38;;;;;;;6.10;5.50;;;;;;;21.79;38.70;93909.84;6276937;27;103226;-63
2022/12/12 05:29:41;;;;;;;5.10;4.60;;;;;;;21.72;38.74;93900.88;6287394;27;103073;-62
2022/12/12 05:32:44;;;;;;;5.40;4.77;;;;;;;21.69;38.74;93893.53;6286305;27;103258;-61
2022/12/12 05:35:47;;;;;;;5.33;4.90;;;;;;;21.66;38.87;93910.16;6285143;27;103056;-62
2022/12/12 05:38:50;;;;;;;5.90;5.30;;;;;;;21.64;38.54;93896.41;6277498;27;104391;-62
2022/12/12 05:41:55;;;;;;;5.50;5.00;;;;;;;21.62;38.65;93914.59;6285830;27;103118;-63
2022/12/12 05:44:58;;;;;;;6.10;5.60;;;;;;;21.61;38.59;93918.38;6285751;27;104158;-62
2022/12/12 05:48:01;;;;;;;5.13;4.73;;;;;;;21.61;38.31;93903.16;6276103;27;104252;-61
2022/12/12 05:51:05;;;;;;;7.83;5.13;;;;;;;21.59;38.23;93910.72;6284205;27;103139;-62
2022/12/12 05:54:08;;;;;;;5.40;5.00;;;;;;;21.59;38.14;93901.94;6285719;27;103768;-62
2022/12/12 05:57:12;;;;;;;5.40;5.00;;;;;;;21.61;38.14;93897.06;6286490;27;103249;-62
2022/12/12 06:00:16;;;;;;;6.23;5.70;;;;;;;21.59;38.08;93905.38;6277927;27;103059;-61
2022/12/12 06:03:19;;;;;;;5.30;4.90;;;;;;;21.62;37.67;93917.25;6287210;27;103295;-61
2022/12/12 06:06:22;;;;;;;5.80;5.33;;;;;;;21.59;37.70;93912.59;6287749;27;103288;-62
2022/12/12 06:09:25;;;;;;;5.70;5.30;;;;;;;21.58;37.77;93897.72;6286850;27;102803;-61
2022/12/12 06:12:30;;;;;;;5.67;5.17;;;;;;;21.58;37.26;93903.84;6277132;27;104086;-61
2022/12/12 06:15:33;;;;;;;5.70;5.20;;;;;;;21.58;37.65;93911.03;6286658;27;103290;-61
2022/12/12 06:18:36;;;;;;;6.60;6.00;;;;;;;21.57;37.48;93926.25;6286231;27;103007;-63
2022/12/12 06:21:40;;;;;;;5.87;5.40;;;;;;;21.58;37.07;93938.44;6281299;27;103711;-63
2022/12/12 06:24:43;;;;;;;5.30;4.90;;;;;;;21.59;37.42;93939.22;6280620;27;106378;-63
2022/12/12 06:27:47;;;;;;;5.50;5.10;;;;;;;21.59;37.21;93952.53;6286722;27;103868;-63
2022/12/12 06:30:50;;;;;;;5.60;5.20;;;;;;;21.58;37.39;93948.31;6286563;27;103563;-63
2022/12/12 06:33:53;;;;;;;5.40;4.90;;;;;;;21.58;37.35;93958.97;6274957;27;103011;-63
2022/12/12 06:36:56;;;;;;;5.97;5.47;;;;;;;21.59;36.99;93960.50;6286460;27;103047;-62
2022/12/12 06:39:59;;;;;;;4.97;4.60;;;;;;;21.57;37.27;93968.06;6286504;27;104231;-62
2022/12/12 06:43:04;;;;;;;5.63;5.23;;;;;;;21.60;37.16;93973.50;6286631;27;104002;-62
2022/12/12 06:46:10;;;;;;;5.80;5.30;;;;;;;21.60;36.66;93957.53;6276117;27;103228;-61
2022/12/12 06:49:13;;;;;;;6.13;5.33;;;;;;;21.60;37.11;93984.13;6285739;27;103131;-61
2022/12/12 06:52:16;;;;;;;5.97;5.47;;;;;;;21.62;36.75;93975.81;6285017;27;103115;-62
2022/12/12 06:55:19;;;;;;;5.60;5.20;;;;;;;21.62;36.98;93989.91;6284805;27;103729;-61
2022/12/12 06:58:24;;;;;;;5.30;4.90;;;;;;;21.63;36.74;93964.06;6277188;27;103080;-63
2022/12/12 07:01:27;;;;;;;5.20;4.80;;;;;;;21.63;37.09;93993.34;6286262;27;104194;-63
2022/12/12 07:04:30;;;;;;;5.20;4.80;;;;;;;21.62;36.69;93986.47;6285704;27;102687;-61
2022/12/12 07:07:33;;;;;;;6.40;5.90;;;;;;;21.63;37.07;93998.69;6275424;27;103211;-61
2022/12/12 07:10:36;;;;;;;5.13;4.73;;;;;;;21.66;36.80;93990.03;6285093;27;104347;-62
2022/12/12 07:13:41;;;;;;;5.60;5.20;;;;;;;21.73;36.63;93996.38;6285864;27;103151;-62
2022/12/12 07:16:44;;;;;;;6.30;4.70;;;;;;;21.80;36.49;94009.16;6285530;27;103563;-62
2022/12/12 07:19:47;;;;;;;5.87;5.47;;;;;;;21.77;36.69;94001.84;6276769;27;103736;-61
2022/12/12 07:22:51;;;;;;;6.07;5.57;;;;;;;21.76;36.47;93992.28;6284935;27;103230;-61
2022/12/12 07:25:54;;;;;;;5.30;4.90;;;;;;;21.73;36.27;93999.06;6285145;27;103181;-62
2022/12/12 07:28:58;;;;;;;5.80;5.40;;;;;;;21.73;36.71;93998.28;6285800;27;104079;-63
2022/12/12 07:32:01;;;;;;;5.67;5.20;;;;;;;21.72;36.64;94012.69;6274576;27;104015;-62
2022/12/12 07:35:05;;;;;;;5.73;5.23;;;;;;;21.74;36.44;94031.78;6286731;27;103034;-61
2022/12/12 07:38:09;;;;;;;5.30;4.90;;;;;;;21.74;36.71;94029.91;6289896;27;103594;-61
2022/12/12 07:41:13;;;;;;;6.10;5.60;;;;;;;21.74;36.64;94051.19;6284469;27;103034;-62
2022/12/12 07:44:18;;;;;;;6.07;5.57;;;;;;;21.72;36.60;94052.63;6286474;27;104090;-61
2022/12/12 07:47:21;;;;;;;6.47;5.97;;;;;;;21.71;36.28;94043.09;6289366;27;104397;-62
2022/12/12 07:50:24;;;;;;;6.10;5.60;;;;;;;21.70;36.44;94052.97;6289810;27;103109;-61
2022/12/12 07:53:27;;;;;;;5.60;5.10;;;;;;;21.69;36.70;94046.09;6278321;27;103265;-61
2022/12/12 07:56:30;;;;;;;6.10;5.70;;;;;;;21.68;36.47;94051.75;6289466;27;103853;-62
2022/12/12 07:59:35;;;;;;;5.83;5.43;;;;;;;21.67;36.88;94050.16;6289240;27;103147;-61
2022/12/12 08:02:38;;;;;;;6.57;6.07;;;;;;;21.68;36.35;94065.06;6289204;27;103261;-61
2022/12/12 08:05:41;;;;;;;6.00;5.50;;;;;;;21.65;36.49;94068.34;6278594;27;104072;-61
2022/12/12 08:08:45;;;;;;;5.73;5.33;;;;;;;21.65;36.71;94073.66;6288391;27;103055;-63
2022/12/12 08:11:48;;;;;;;6.20;5.60;;;;;;;21.64;36.49;94062.25;6289456;27;104154;-61
2022/12/12 08:14:52;;;;;;;6.00;5.50;;;;;;;21.65;36.83;94084.31;6284680;27;103169;-62
2022/12/12 08:17:55;;;;;;;6.20;5.70;;;;;;;21.64;36.75;94077.44;6282782;27;103116;-61
2022/12/12 08:20:58;;;;;;;7.10;6.50;;;;;;;21.64;36.64;94091.53;6289167;27;104069;-63
2022/12/12 08:24:02;;;;;;;6.20;5.80;;;;;;;21.63;36.99;94084.66;6287823;27;104430;-62
2022/12/12 08:27:06;;;;;;;6.03;5.60;;;;;;;21.63;36.67;94083.88;6278751;27;102995;-62
2022/12/12 08:30:18;;;;;;;6.30;5.80;;;;;;;21.63;36.71;94099.84;6289097;27;104105;-61
2022/12/12 08:33:21;;;;;;;6.23;5.73;;;;;;;21.63;36.57;94081.22;6288356;27;103277;-62
2022/12/12 08:36:28;;;;;;;7.00;6.50;;;;;;;21.64;36.92;94102.19;6288700;27;104186;-62
2022/12/12 08:39:31;;;;;;;6.90;6.40;;;;;;;21.64;36.83;94093.41;6277944;27;104157;-62
2022/12/12 08:42:35;;;;;;;6.93;6.43;;;;;;;21.64;36.39;94093.41;6288969;27;104536;-61
2022/12/12 08:45:39;;;;;;;6.83;6.43;;;;;;;21.66;36.60;94104.50;6288202;27;103193;-62
2022/12/12 08:48:43;;;;;;;7.30;6.70;;;;;;;21.65;36.68;94095.75;6288066;27;103889;-62
2022/12/12 08:51:46;;;;;;;6.90;6.40;;;;;;;21.64;36.47;94082.75;6279494;27;106371;-62
2022/12/12 08:54:49;;;;;;;7.80;7.20;;;;;;;21.65;36.83;94087.75;6287272;27;102922;-61
2022/12/12 08:57:52;;;;;;;7.93;7.33;;;;;;;21.64;36.22;94090.75;6287833;27;103437;-61
2022/12/12 09:00:56;;;;;;;6.97;6.40;;;;;;;21.66;36.64;94078.66;6278609;27;104175;-62
2022/12/12 09:03:59;;;;;;;7.10;6.60;;;;;;;21.65;36.58;94082.44;6287366;27;103138;-61
2022/12/12 09:07:02;;;;;;;7.93;7.33;;;;;;;21.64;36.70;94074.78;6287763;27;103153;-62
2022/12/12 09:10:10;;;;;;;8.10;7.50;;;;;;;21.64;36.77;94083.53;6287081;27;103344;-63
2022/12/12 09:13:13;;;;;;;8.77;7.97;;;;;;;21.65;36.63;94086.97;6277350;27;103228;-63
2022/12/12 09:16:18;;;;;;;8.30;7.70;;;;;;;21.65;36.40;94081.66;6287481;27;103161;-62
2022/12/12 09:19:21;;;;;;;8.47;7.87;;;;;;;21.65;36.31;94076.34;6287523;27;103126;-61
2022/12/12 09:22:24;;;;;;;7.80;7.30;;;;;;;21.65;36.15;94073.66;6287341;27;103190;-62
2022/12/12 09:25:27;;;;;;;8.60;8.00;;;;;;;21.64;36.68;94072.91;6276612;27;103140;-62
2022/12/12 09:28:30;;;;;;;7.87;7.27;;;;;;;21.65;36.66;94082.44;6288002;27;103344;-61
2022/12/12 09:31:35;;;;;;;8.80;8.10;;;;;;;21.64;36.56;94077.44;6287787;27;102901;-61
2022/12/12 09:34:38;;;;;;;8.93;8.23;;;;;;;21.65;36.20;94068.34;6282324;27;103220;-63
2022/12/12 09:37:41;;;;;;;8.47;7.87;;;;;;;21.64;36.37;94064.13;6281819;27;102954;-63
2022/12/12 09:40:51;;;;;;;9.10;8.40;;;;;;;21.64;36.52;94048.94;6287321;27;103141;-62
2022/12/12 09:43:57;;;;;;;9.87;9.07;;;;;;;21.63;36.26;94057.25;6287568;27;103232;-62
2022/12/12 09:47:07;;;;;;;9.67;8.93;;;;;;;21.63;36.67;94046.59;6277456;27;103756;-61
2022/12/12 09:50:18;;;;;;;10.07;9.37;;;;;;;21.63;36.42;94049.25;6287115;27;103238;-63
2022/12/12 09:53:25;;;;;;;9.83;9.03;;;;;;;21.65;36.59;94049.72;6286901;27;103112;-63
2022/12/12 09:56:35;;;;;;;9.40;8.70;;;;;;;21.64;36.82;94037.50;6286901;27;104641;-61
2022/12/12 09:59:44;;;;;;;9.80;9.00;;;;;;;21.63;36.31;94041.28;6275826;27;104310;-62
2022/12/12 10:03:02;;;;;;;9.70;9.00;;;;;;;21.63;36.15;94051.91;6287682;27;104229;-63
2022/12/12 10:06:07;;;;;;;9.97;9.27;;;;;;;21.62;36.60;94048.47;6286916;27;104274;-62
2022/12/12 10:09:57;;;;;;;10.03;9.27;;;;;;;21.63;36.24;94044.72;6275644;27;102842;-62
2022/12/12 10:13:05;;;;;;;10.27;9.37;;;;;;;21.64;36.28;94030.28;6286935;27;104245;-62
2022/12/12 10:16:10;;;;;;;9.87;9.10;;;;;;;21.64;36.17;94037.50;6286735;27;102950;-62
2022/12/12 10:19:22;;;;;;;10.00;9.30;;;;;;;21.64;36.23;94046.25;6287024;27;102989;-61
2022/12/12 10:22:34;;;;;;;10.10;9.40;;;;;;;21.62;36.84;94045.03;6277157;27;104255;-61
2022/12/12 10:25:44;;;;;;;10.20;9.40;;;;;;;21.65;36.52;94045.16;6286769;27;103188;-62
2022/12/12 10:28:52;;;;;;;10.23;9.53;;;;;;;21.65;36.34;94031.84;6285531;27;103476;-62
2022/12/12 10:32:07;;;;;;;10.67;9.77;;;;;;;21.66;36.72;94041.41;6276537;27;103646;-63
2022/12/12 10:35:21;;;;;;;10.50;9.70;;;;;;;21.67;36.80;94026.19;6286282;27;103808;-62
2022/12/12 10:38:48;;;;;;;10.03;9.33;;;;;;;21.69;36.34;94024.00;6286428;27;104165;-62
2022/12/12 10:42:00;;;;;;;10.43;9.63;;;;;;;21.69;36.39;93998.16;6286273;27;103110;-62
2022/12/12 10:45:30;;;;;;;10.07;9.27;;;;;;;21.72;36.70;93996.72;6275697;27;103292;-62
2022/12/12 10:48:33;;;;;;;10.60;9.80;;;;;;;21.73;36.22;93992.94;6286218;27;104413;-61
2022/12/12 10:51:38;;;;;;;10.70;9.90;;;;;;;21.72;36.59;93970.09;6285560;27;103227;-61
2022/12/12 10:54:46;;;;;;;10.03;9.33;;;;;;;21.72;36.64;93970.09;6276228;27;104109;-63
2022/12/12 10:58:02;;;;;;;9.87;9.17;;;;;;;21.72;36.50;93959.44;6286159;27;103043;-62
2022/12/12 11:01:12;;;;;;;10.87;9.87;;;;;;;21.72;36.11;93978.84;6285011;27;104014;-62
2022/12/12 11:04:15;;;;;;;10.10;9.33;;;;;;;21.72;36.72;93988.72;6285879;27;103263;-61
2022/12/12 11:07:22;;;;;;;10.93;10.10;;;;;;;21.73;36.78;93990.28;6273728;27;103120;-62
2022/12/12 11:10:28;;;;;;;9.93;9.13;;;;;;;21.72;36.74;93991.41;6287524;27;103321;-61
2022/12/12 11:13:45;;;;;;;10.00;9.20;;;;;;;21.72;36.45;93978.09;6290585;27;103066;-62
2022/12/12 11:16:48;;;;;;;9.30;8.60;;;;;;;21.72;36.39;93991.41;6285714;27;104227;-61
2022/12/12 11:19:53;;;;;;;11.10;10.20;;;;;;;21.72;36.61;93988.72;6284427;27;103063;-62
2022/12/12 11:22:57;;;;;;;9.17;8.47;;;;;;;21.72;36.80;93994.06;6289936;27;103217;-61
2022/12/12 11:26:03;;;;;;;10.20;9.40;;;;;;;21.71;36.90;93987.19;6290303;27;103421;-61
2022/12/12 11:29:07;;;;;;;9.40;8.70;;;;;;;21.70;37.06;93973.09;6279318;27;105461;-62
2022/12/12 11:32:14;;;;;;;9.50;8.80;;;;;;;21.70;36.87;93982.97;6289427;27;103080;-62
2022/12/12 11:35:23;;;;;;;10.30;9.50;;;;;;;21.69;36.50;93966.22;6290052;27;103474;-63
2022/12/12 11:38:30;;;;;;;9.87;9.07;;;;;;;21.69;36.94;93960.88;6289793;27;103219;-63
2022/12/12 11:41:57;;;;;;;10.03;9.33;;;;;;;21.68;36.80;93964.66;6278376;27;105754;-63
2022/12/12 11:45:04;;;;;;;9.10;8.43;;;;;;;21.68;36.46;93959.34;6289750;27;104168;-64
2022/12/12 11:48:32;;;;;;;9.73;8.93;;;;;;;21.69;36.62;93949.47;6290010;27;103162;-62
2022/12/12 11:51:38;;;;;;;8.60;7.90;;;;;;;21.68;36.54;93953.22;6277956;27;103201;-62
2022/12/12 11:54:42;;;;;;;8.50;7.90;;;;;;;21.68;36.81;93953.22;6290018;27;104093;-61
2022/12/12 11:58:10;;;;;;;9.60;8.90;;;;;;;21.68;36.76;93953.22;6288988;27;103532;-62
2022/12/12 12:01:21;;;;;;;9.77;9.00;;;;;;;21.69;36.69;93947.56;6289385;27;103925;-61
2022/12/12 12:04:46;;;;;;;9.30;8.60;;;;;;;21.68;36.98;93945.25;6278254;27;103240;-61
2022/12/12 12:08:08;;;;;;;9.53;8.83;;;;;;;21.68;36.74;93947.91;6288775;27;104278;-63
2022/12/12 12:11:26;;;;;;;9.03;8.33;;;;;;;21.68;36.96;93955.88;6289234;27;104009;-62
2022/12/12 12:14:45;;;;;;;9.40;8.70;;;;;;;21.67;36.71;93952.44;6278900;27;103438;-61
2022/12/12 12:18:04;;;;;;;9.63;8.93;;;;;;;21.67;37.37;93948.97;6289280;27;103162;-61
2022/12/12 12:21:29;;;;;;;9.03;8.33;;;;;;;21.66;37.02;93939.44;6287768;27;103109;-61
2022/12/12 12:24:53;;;;;;;8.77;8.07;;;;;;;21.67;36.47;93936.44;6284265;27;104055;-61
2022/12/12 12:28:14;;;;;;;9.40;8.70;;;;;;;21.68;36.88;93942.56;6283814;27;103091;-62
2022/12/12 12:31:24;;;;;;;9.50;8.80;;;;;;;21.66;36.83;93929.56;6288748;27;103086;-62
2022/12/12 12:34:39;;;;;;;8.83;8.23;;;;;;;21.68;36.92;93923.94;6289001;27;104293;-62
2022/12/12 12:37:53;;;;;;;8.57;7.97;;;;;;;21.66;36.98;93918.13;6278303;27;103654;-62
2022/12/12 12:41:25;;;;;;;9.83;9.10;;;;;;;21.66;36.56;93912.81;6288694;27;103296;-62
2022/12/12 12:44:41;;;;;;;10.20;9.40;;;;;;;21.66;36.59;93918.13;6286548;27;104141;-62
2022/12/12 12:47:51;;;;;;;9.30;8.60;;;;;;;21.66;36.77;93907.50;6283073;27;105147;-62
2022/12/12 12:51:03;;;;;;;8.90;8.20;;;;;;;21.65;37.10;93913.94;6287051;27;103083;-61
2022/12/12 12:54:13;;;;;;;8.73;8.03;;;;;;;21.65;36.83;93916.59;6288413;27;103428;-62
2022/12/12 12:57:21;;;;;;;9.20;8.50;;;;;;;21.64;36.81;93923.03;6288025;27;104245;-62
2022/12/12 13:00:30;;;;;;;8.77;8.17;;;;;;;21.63;36.58;93913.47;6278281;27;104024;-62
2022/12/12 13:03:37;;;;;;;10.40;9.60;;;;;;;21.62;36.82;93910.03;6287812;27;103073;-61
2022/12/12 13:06:46;;;;;;;9.27;8.57;;;;;;;21.62;36.70;93912.72;6288082;27;103511;-61
2022/12/12 13:09:58;;;;;;;9.20;8.43;;;;;;;21.61;37.10;93915.69;6285000;27;102826;-62
2022/12/12 13:13:07;;;;;;;8.63;8.03;;;;;;;21.63;36.91;93910.81;6281868;27;103186;-61
2022/12/12 13:16:15;;;;;;;9.27;8.57;;;;;;;21.61;37.13;93911.16;6288540;27;103533;-62
2022/12/12 13:19:29;;;;;;;8.77;8.10;;;;;;;21.61;37.13;93921.81;6287306;27;102988;-62
2022/12/12 13:22:43;;;;;;;9.57;8.77;;;;;;;21.62;36.78;93914.59;6277130;27;103191;-62
2022/12/12 13:25:55;;;;;;;9.00;8.40;;;;;;;21.62;37.04;93917.25;6288002;27;104078;-62
2022/12/12 13:29:04;;;;;;;9.07;8.37;;;;;;;21.62;36.79;93914.59;6287474;27;104347;-61
2022/12/12 13:33:00;;;;;;;10.20;9.40;;;;;;;21.61;36.70;93918.38;6287227;27;103159;-61
2022/12/12 13:36:11;;;;;;;9.83;9.03;;;;;;;21.64;36.83;93923.03;6202763;27;103205;-61
2022/12/12 13:39:25;;;;;;;9.10;8.40;;;;;;;21.63;36.68;93929.47;6287782;27;104611;-62
2022/12/12 13:42:51;;;;;;;9.70;9.00;;;;;;;21.61;36.83;93915.69;6286471;27;104400;-62
2022/12/12 13:45:55;;;;;;;9.10;8.40;;;;;;;21.61;37.19;93915.69;6277702;27;103644;-61
2022/12/12 13:49:10;;;;;;;8.90;8.30;;;;;;;21.61;36.79;93915.69;6286694;27;103940;-63
2022/12/12 13:52:29;;;;;;;8.37;7.77;;;;;;;21.60;36.96;93930.91;6287381;27;104321;-63
2022/12/12 13:55:32;;;;;;;8.93;8.23;;;;;;;21.62;36.85;93933.22;6282607;27;103263;-62
2022/12/12 13:58:35;;;;;;;9.70;9.00;;;;;;;21.59;37.22;93931.22;6281569;27;104252;-63
2022/12/12 14:01:40;;;;;;;8.30;7.70;;;;;;;21.60;36.71;93946.88;6286991;27;104175;-61
2022/12/12 14:04:46;;;;;;;8.60;8.00;;;;;;;21.60;37.13;93946.88;6286741;27;104104;-61
2022/12/12 14:07:52;;;;;;;9.20;8.43;;;;;;;21.61;36.78;93942.31;6276578;27;104122;-61
2022/12/12 14:10:58;;;;;;;8.50;7.80;;;;;;;21.59;36.78;93942.66;6286761;27;102989;-61
2022/12/12 14:14:07;;;;;;;8.30;7.70;;;;;;;21.59;37.03;93939.22;6286171;27;103303;-61
2022/12/12 14:17:20;;;;;;;8.67;7.97;;;;;;;21.59;37.17;93940.00;6286924;27;104178;-62
2022/12/12 14:20:30;;;;;;;7.90;7.30;;;;;;;21.59;37.18;93947.19;6275731;27;103618;-63
2022/12/12 14:23:35;;;;;;;7.97;7.37;;;;;;;21.60;36.97;93946.09;6286813;27;104063;-61
2022/12/12 14:26:50;;;;;;;8.53;7.93;;;;;;;21.59;36.65;93955.19;6286430;27;104566;-61
2022/12/12 14:29:53;;;;;;;8.90;8.17;;;;;;;21.58;37.00;93969.59;6278753;27;103849;-63
2022/12/12 14:33:08;;;;;;;8.30;7.70;;;;;;;21.58;36.79;93956.28;6285372;27;104780;-61
2022/12/12 14:36:30;;;;;;;8.87;8.17;;;;;;;21.58;37.18;93950.97;6287074;27;104138;-61
2022/12/12 14:39:57;;;;;;;8.07;7.47;;;;;;;21.57;37.43;93954.75;6286541;27;103013;-62
2022/12/12 14:43:04;;;;;;;8.57;7.97;;;;;;;21.56;36.88;93947.88;6267491;27;103471;-61
2022/12/12 14:46:24;;;;;;;8.17;7.57;;;;;;;21.55;37.21;93947.09;6285908;27;103095;-61
2022/12/12 14:49:27;;;;;;;8.60;7.90;;;;;;;21.56;37.13;93932.66;6286301;27;103511;-62